Time;durP1;ratioP1;P1;durP2;ratioP2;P2;SDS_P1;SDS_P2;PMS_P1;PMS_P2;Temp;Humidity;BMP_temperature;BMP_pressure;BME280_temperature;BME280_humidity;BME280_pressure;Samples;Min_cycle;Max_cycle;Signal;HPM_P1;HPM_P2
2021/09/02 00:00:37;;;;;;;13.37;11.23;;;;;;;;;;5033930;28;20461;-58
2021/09/02 00:03:04;;;;;;;13.60;11.50;;;;;;;;;;5033733;28;20820;-58
2021/09/02 00:05:31;;;;;;;18.13;12.50;;;;;;;;;;5033745;28;20441;-58
2021/09/02 00:07:59;;;;;;;13.67;11.17;;;;;;;;;;5033652;28;20441;-58
2021/09/02 00:10:26;;;;;;;13.97;11.00;;;;;;;;;;5033713;28;20461;-58
2021/09/02 00:12:55;;;;;;;15.23;11.30;;;;;;;;;;5033750;28;20554;-58
2021/09/02 00:15:22;;;;;;;17.03;11.70;;;;;;;;;;5033650;28;20452;-58
2021/09/02 00:17:49;;;;;;;19.23;12.67;;;;;;;;;;5033440;28;20502;-58
2021/09/02 00:20:16;;;;;;;22.10;12.50;;;;;;;;;;5033259;28;20497;-58
2021/09/02 00:22:44;;;;;;;21.03;11.50;;;;;;;;;;5033252;28;20453;-58
2021/09/02 00:25:11;;;;;;;20.37;12.30;;;;;;;;;;5036810;28;20944;-59
2021/09/02 00:27:38;;;;;;;19.47;12.23;;;;;;;;;;5037765;28;20491;-58
2021/09/02 00:30:08;;;;;;;13.30;10.87;;;;;;;;;;5037475;28;20465;-58
2021/09/02 00:32:35;;;;;;;16.70;11.93;;;;;;;;;;5037306;28;20490;-58
2021/09/02 00:35:02;;;;;;;19.30;12.07;;;;;;;;;;5037493;28;20444;-59
2021/09/02 00:37:30;;;;;;;15.17;11.20;;;;;;;;;;5036844;28;20456;-58
2021/09/02 00:39:57;;;;;;;16.93;12.40;;;;;;;;;;5036881;28;20530;-58
2021/09/02 00:42:25;;;;;;;19.70;12.27;;;;;;;;;;5037134;28;20452;-58
2021/09/02 00:44:52;;;;;;;16.53;12.93;;;;;;;;;;5037066;28;20436;-58
2021/09/02 00:47:21;;;;;;;19.97;12.80;;;;;;;;;;5036993;28;20449;-58
2021/09/02 00:49:49;;;;;;;17.93;13.53;;;;;;;;;;5036734;28;21030;-58
2021/09/02 00:52:18;;;;;;;19.03;12.20;;;;;;;;;;5037193;28;20503;-58
2021/09/02 00:54:47;;;;;;;21.23;13.60;;;;;;;;;;5036892;28;20476;-58
2021/09/02 00:57:14;;;;;;;16.77;12.87;;;;;;;;;;5036925;28;20445;-58
2021/09/02 00:59:42;;;;;;;20.30;13.50;;;;;;;;;;5036365;28;20893;-58
2021/09/02 01:02:09;;;;;;;25.77;13.00;;;;;;;;;;5036495;28;20456;-58
2021/09/02 01:04:38;;;;;;;21.33;13.87;;;;;;;;;;5036668;28;20842;-59
2021/09/02 01:07:05;;;;;;;22.70;14.00;;;;;;;;;;5036319;28;20936;-59
2021/09/02 01:09:33;;;;;;;17.83;13.40;;;;;;;;;;5036346;28;20469;-59
2021/09/02 01:12:00;;;;;;;21.70;13.57;;;;;;;;;;5036512;28;20523;-58
2021/09/02 01:14:28;;;;;;;15.30;13.03;;;;;;;;;;5036382;28;20524;-58
2021/09/02 01:16:57;;;;;;;22.23;12.60;;;;;;;;;;5036168;28;20503;-59
2021/09/02 01:19:24;;;;;;;23.67;14.40;;;;;;;;;;5036318;28;20551;-58
2021/09/02 01:21:53;;;;;;;18.10;13.03;;;;;;;;;;5036358;28;20848;-58
2021/09/02 01:24:21;;;;;;;19.47;14.70;;;;;;;;;;5036361;28;20444;-59
2021/09/02 01:26:49;;;;;;;18.10;13.80;;;;;;;;;;5036334;28;20449;-58
2021/09/02 01:29:16;;;;;;;16.63;12.47;;;;;;;;;;5035905;28;21047;-57
2021/09/02 01:31:44;;;;;;;18.13;15.53;;;;;;;;;;5035832;28;20444;-57
2021/09/02 01:34:11;;;;;;;22.83;13.80;;;;;;;;;;5036183;28;20476;-57
2021/09/02 01:36:39;;;;;;;17.43;15.33;;;;;;;;;;5037384;28;20945;-57
2021/09/02 01:41:36;;;;;;;20.27;14.00;;;;;;;;;;5054383;22;20841;-63
2021/09/02 01:44:03;;;;;;;26.17;14.57;;;;;;;;;;5037055;28;20545;-63
2021/09/02 01:46:31;;;;;;;21.90;13.30;;;;;;;;;;5036213;28;20449;-63
2021/09/02 01:48:58;;;;;;;18.20;13.03;;;;;;;;;;5035740;28;20499;-63
2021/09/02 01:51:25;;;;;;;18.50;13.93;;;;;;;;;;5035893;28;20520;-63
2021/09/02 01:53:52;;;;;;;15.80;13.50;;;;;;;;;;5035582;28;20481;-63
2021/09/02 01:56:19;;;;;;;17.90;13.40;;;;;;;;;;5035774;28;20495;-63
2021/09/02 01:58:48;;;;;;;21.53;13.40;;;;;;;;;;5035615;28;20865;-61
2021/09/02 02:01:15;;;;;;;21.60;13.83;;;;;;;;;;5035611;28;20595;-62
2021/09/02 02:03:43;;;;;;;16.67;13.47;;;;;;;;;;5035831;28;20498;-62
2021/09/02 02:06:10;;;;;;;16.73;13.13;;;;;;;;;;5035739;28;20511;-62
2021/09/02 02:08:37;;;;;;;17.80;12.43;;;;;;;;;;5035660;28;20832;-62
2021/09/02 02:11:04;;;;;;;15.97;12.07;;;;;;;;;;5035341;28;20527;-62
2021/09/02 02:13:32;;;;;;;17.20;12.53;;;;;;;;;;5035628;28;20481;-62
2021/09/02 02:16:00;;;;;;;16.10;12.13;;;;;;;;;;5035611;28;20445;-62
2021/09/02 02:18:27;;;;;;;16.83;12.37;;;;;;;;;;5036296;28;20449;-62
2021/09/02 02:20:55;;;;;;;23.40;13.23;;;;;;;;;;5035065;28;20454;-62
2021/09/02 02:23:22;;;;;;;19.00;13.13;;;;;;;;;;5035412;28;20515;-62
2021/09/02 02:25:49;;;;;;;23.63;13.03;;;;;;;;;;5035174;28;20453;-62
2021/09/02 02:28:16;;;;;;;21.73;12.20;;;;;;;;;;5035470;28;20437;-62
2021/09/02 02:30:44;;;;;;;13.47;11.10;;;;;;;;;;5035497;28;20476;-62
2021/09/02 02:33:12;;;;;;;18.37;13.93;;;;;;;;;;5035170;28;20510;-62
2021/09/02 02:35:39;;;;;;;20.13;13.10;;;;;;;;;;5035477;28;20502;-63
2021/09/02 02:38:07;;;;;;;16.17;12.20;;;;;;;;;;5035366;28;20449;-62
2021/09/02 02:40:34;;;;;;;16.60;12.60;;;;;;;;;;5034780;28;20476;-62
2021/09/02 02:43:02;;;;;;;16.30;13.27;;;;;;;;;;5034895;28;20862;-62
2021/09/02 02:45:29;;;;;;;17.40;12.60;;;;;;;;;;5035036;28;20449;-62
2021/09/02 02:47:56;;;;;;;18.00;13.27;;;;;;;;;;5033842;28;20496;-62
2021/09/02 02:50:25;;;;;;;18.60;12.97;;;;;;;;;;5034943;28;20554;-62
2021/09/02 02:52:52;;;;;;;16.97;12.20;;;;;;;;;;5035069;28;20449;-61
2021/09/02 02:55:20;;;;;;;19.77;13.83;;;;;;;;;;5034871;28;20913;-63
2021/09/02 02:57:47;;;;;;;18.80;12.80;;;;;;;;;;5034719;28;20494;-63
2021/09/02 03:00:14;;;;;;;18.70;12.80;;;;;;;;;;5034293;28;20469;-62
2021/09/02 03:02:42;;;;;;;18.43;13.20;;;;;;;;;;5034418;28;20494;-62
2021/09/02 03:05:09;;;;;;;25.80;14.97;;;;;;;;;;5034680;28;20503;-62
2021/09/02 03:07:38;;;;;;;22.97;13.43;;;;;;;;;;5034833;28;20583;-62
2021/09/02 03:10:06;;;;;;;22.93;13.30;;;;;;;;;;5035084;28;20461;-63
2021/09/02 03:12:34;;;;;;;21.77;12.73;;;;;;;;;;5034370;28;20464;-62
2021/09/02 03:15:01;;;;;;;22.10;13.30;;;;;;;;;;5034190;28;20884;-62
2021/09/02 03:17:28;;;;;;;23.03;13.00;;;;;;;;;;5033829;28;20861;-63
2021/09/02 03:19:56;;;;;;;17.40;12.93;;;;;;;;;;5034213;28;20531;-62
2021/09/02 03:22:23;;;;;;;23.73;12.77;;;;;;;;;;5033966;28;20941;-62
2021/09/02 03:24:52;;;;;;;14.93;11.93;;;;;;;;;;5033729;28;20499;-62
2021/09/02 03:27:19;;;;;;;18.27;13.93;;;;;;;;;;5033717;28;20956;-62
2021/09/02 03:29:46;;;;;;;18.53;12.50;;;;;;;;;;5033958;28;20556;-62
2021/09/02 03:32:13;;;;;;;20.00;12.50;;;;;;;;;;5033585;28;20457;-62
2021/09/02 03:34:41;;;;;;;19.70;13.57;;;;;;;;;;5033796;28;20473;-62
2021/09/02 03:37:08;;;;;;;17.93;13.77;;;;;;;;;;5033918;28;20449;-62
2021/09/02 03:39:35;;;;;;;20.63;12.73;;;;;;;;;;5033256;28;20984;-62
2021/09/02 03:42:04;;;;;;;19.30;12.07;;;;;;;;;;5033815;28;20980;-63
2021/09/02 03:44:31;;;;;;;19.50;12.60;;;;;;;;;;5033740;28;20499;-63
2021/09/02 03:46:59;;;;;;;17.60;12.10;;;;;;;;;;5033601;28;20449;-63
2021/09/02 03:49:26;;;;;;;17.80;12.73;;;;;;;;;;5033524;28;20440;-62
2021/09/02 03:51:53;;;;;;;18.73;12.50;;;;;;;;;;5034078;28;20457;-62
2021/09/02 03:54:20;;;;;;;19.30;12.93;;;;;;;;;;5033366;28;21010;-62
2021/09/02 03:56:47;;;;;;;17.50;11.97;;;;;;;;;;5033610;28;20480;-62
2021/09/02 03:59:16;;;;;;;20.33;11.73;;;;;;;;;;5033167;28;20445;-64
2021/09/02 04:01:44;;;;;;;23.17;12.43;;;;;;;;;;5033555;28;20635;-63
2021/09/02 04:04:11;;;;;;;20.97;13.47;;;;;;;;;;5033452;28;20441;-64
2021/09/02 04:08:32;;;;;;;23.03;14.60;;;;;;;;;;5091590;27;20944;-65
2021/09/02 04:10:59;;;;;;;23.87;14.00;;;;;;;;;;5090682;28;20479;-65
2021/09/02 04:13:26;;;;;;;20.53;15.03;;;;;;;;;;5090941;28;20496;-64
2021/09/02 04:15:53;;;;;;;27.43;15.27;;;;;;;;;;5090739;28;20451;-65
2021/09/02 04:18:21;;;;;;;23.40;15.43;;;;;;;;;;5090878;28;20451;-65
2021/09/02 04:20:48;;;;;;;22.97;15.73;;;;;;;;;;5090848;28;20470;-63
2021/09/02 04:23:15;;;;;;;25.63;17.00;;;;;;;;;;5090859;28;20524;-65
2021/09/02 04:25:44;;;;;;;24.47;15.23;;;;;;;;;;5090476;28;20446;-64
2021/09/02 04:28:11;;;;;;;20.87;16.20;;;;;;;;;;5090558;28;20478;-65
2021/09/02 04:30:38;;;;;;;22.43;17.20;;;;;;;;;;5090190;28;20522;-64
2021/09/02 04:33:05;;;;;;;25.23;18.33;;;;;;;;;;5090954;28;20447;-64
2021/09/02 04:35:33;;;;;;;25.03;16.80;;;;;;;;;;5093668;28;20446;-64
2021/09/02 04:38:00;;;;;;;26.27;16.07;;;;;;;;;;5093564;28;21007;-63
2021/09/02 04:40:27;;;;;;;26.23;17.40;;;;;;;;;;5094019;28;20455;-64
2021/09/02 04:42:56;;;;;;;23.10;16.30;;;;;;;;;;5096041;28;20446;-64
2021/09/02 04:45:23;;;;;;;21.53;16.87;;;;;;;;;;5091042;28;20446;-65
2021/09/02 04:47:50;;;;;;;21.83;15.60;;;;;;;;;;5090858;28;21080;-65
2021/09/02 04:50:18;;;;;;;25.03;17.07;;;;;;;;;;5090344;28;20459;-65
2021/09/02 04:52:45;;;;;;;26.23;17.10;;;;;;;;;;5092027;28;20496;-65
2021/09/02 04:55:13;;;;;;;26.40;17.70;;;;;;;;;;5094037;28;20499;-65
2021/09/02 04:57:40;;;;;;;28.80;18.00;;;;;;;;;;5091782;28;20456;-66
2021/09/02 05:00:10;;;;;;;26.00;17.10;;;;;;;;;;5091895;28;20879;-66
2021/09/02 05:02:37;;;;;;;25.07;16.73;;;;;;;;;;5091524;28;20450;-66
2021/09/02 05:05:04;;;;;;;28.03;16.67;;;;;;;;;;5093772;28;20442;-66
2021/09/02 05:07:34;;;;;;;26.10;17.83;;;;;;;;;;5097390;28;20571;-65
2021/09/02 05:10:05;;;;;;;23.67;16.47;;;;;;;;;;5095506;28;20492;-66
2021/09/02 05:12:32;;;;;;;28.00;17.80;;;;;;;;;;5093905;28;20431;-67
2021/09/02 05:14:59;;;;;;;26.47;17.20;;;;;;;;;;5096118;28;20472;-66
2021/09/02 05:17:28;;;;;;;29.73;17.17;;;;;;;;;;5094351;28;20497;-65
2021/09/02 05:19:55;;;;;;;27.07;16.30;;;;;;;;;;5080583;28;20462;-68
2021/09/02 05:22:23;;;;;;;25.90;17.10;;;;;;;;;;5081264;28;20538;-66
2021/09/02 05:24:50;;;;;;;22.83;15.37;;;;;;;;;;5080599;28;20523;-65
2021/09/02 05:27:17;;;;;;;22.63;16.40;;;;;;;;;;5078927;28;20482;-65
2021/09/02 05:29:45;;;;;;;27.03;15.70;;;;;;;;;;5077353;28;20459;-66
2021/09/02 05:32:12;;;;;;;23.33;15.53;;;;;;;;;;5077325;28;20447;-67
2021/09/02 05:34:41;;;;;;;24.90;16.13;;;;;;;;;;5076873;28;20447;-64
2021/09/02 05:37:08;;;;;;;21.23;15.43;;;;;;;;;;5075979;28;20443;-65
2021/09/02 05:39:35;;;;;;;20.40;16.13;;;;;;;;;;5075722;28;20463;-67
2021/09/02 05:42:03;;;;;;;23.60;16.67;;;;;;;;;;5076009;28;20504;-67
2021/09/02 05:44:30;;;;;;;23.67;14.90;;;;;;;;;;5076193;28;20524;-64
2021/09/02 05:46:57;;;;;;;23.67;16.60;;;;;;;;;;5075354;28;20476;-66
2021/09/02 05:49:25;;;;;;;17.90;13.63;;;;;;;;;;5076981;28;20501;-66
2021/09/02 05:51:53;;;;;;;23.03;13.40;;;;;;;;;;5078516;28;20500;-66
2021/09/02 05:54:20;;;;;;;18.93;13.40;;;;;;;;;;5090947;28;20922;-69
2021/09/02 05:56:48;;;;;;;18.90;11.40;;;;;;;;;;5089734;28;20447;-66
2021/09/02 05:59:15;;;;;;;19.73;12.60;;;;;;;;;;5077872;28;20440;-67
2021/09/02 06:01:43;;;;;;;23.77;14.33;;;;;;;;;;5076916;28;20450;-67
2021/09/02 06:04:11;;;;;;;20.67;13.27;;;;;;;;;;5075992;28;20452;-65
2021/09/02 06:06:38;;;;;;;22.23;14.53;;;;;;;;;;5077464;28;20451;-66
2021/09/02 06:09:07;;;;;;;20.10;14.43;;;;;;;;;;5078110;28;20416;-67
2021/09/02 06:11:34;;;;;;;22.50;13.80;;;;;;;;;;5075786;28;20514;-66
2021/09/02 06:14:01;;;;;;;18.20;11.50;;;;;;;;;;5075444;28;20497;-67
2021/09/02 06:16:29;;;;;;;16.57;12.43;;;;;;;;;;5074948;28;20871;-66
2021/09/02 06:18:56;;;;;;;17.43;12.40;;;;;;;;;;5075023;28;20455;-66
2021/09/02 06:21:23;;;;;;;20.30;15.00;;;;;;;;;;5074741;28;21174;-66
2021/09/02 06:23:50;;;;;;;24.90;14.60;;;;;;;;;;5074680;28;20856;-65
2021/09/02 06:26:19;;;;;;;26.13;14.87;;;;;;;;;;5075513;28;20439;-66
2021/09/02 06:28:46;;;;;;;26.33;15.73;;;;;;;;;;5076157;28;20475;-67
2021/09/02 06:31:14;;;;;;;29.40;18.30;;;;;;;;;;5073766;28;20459;-67
2021/09/02 06:33:41;;;;;;;31.57;18.40;;;;;;;;;;5074645;28;20493;-67
2021/09/02 06:36:08;;;;;;;32.37;17.23;;;;;;;;;;5074178;28;20504;-68
2021/09/02 06:38:35;;;;;;;25.60;16.07;;;;;;;;;;5074590;28;20435;-66
2021/09/02 06:41:03;;;;;;;23.60;13.70;;;;;;;;;;5074791;28;20464;-67
2021/09/02 06:43:31;;;;;;;25.73;14.80;;;;;;;;;;5075780;28;20834;-65
2021/09/02 06:45:58;;;;;;;22.27;13.13;;;;;;;;;;5074691;28;20875;-66
2021/09/02 06:48:26;;;;;;;20.77;12.47;;;;;;;;;;5074304;28;20475;-67
2021/09/02 06:50:53;;;;;;;20.00;13.23;;;;;;;;;;5074612;28;20512;-67
2021/09/02 06:53:20;;;;;;;16.93;11.40;;;;;;;;;;5074395;28;20881;-66
2021/09/02 06:55:47;;;;;;;15.67;12.10;;;;;;;;;;5074211;28;20509;-68
2021/09/02 06:58:15;;;;;;;21.17;12.13;;;;;;;;;;5074514;28;20435;-67
2021/09/02 07:00:43;;;;;;;18.63;12.50;;;;;;;;;;5074304;28;20873;-65
2021/09/02 07:03:11;;;;;;;18.23;11.20;;;;;;;;;;5074237;28;20443;-67
2021/09/02 07:05:38;;;;;;;18.47;12.60;;;;;;;;;;5073955;28;20454;-65
2021/09/02 07:08:06;;;;;;;19.47;12.10;;;;;;;;;;5074166;28;20486;-67
2021/09/02 07:10:33;;;;;;;20.50;13.60;;;;;;;;;;5074162;28;20471;-67
2021/09/02 07:13:00;;;;;;;20.30;13.53;;;;;;;;;;5073949;28;20781;-66
2021/09/02 07:15:28;;;;;;;28.83;13.60;;;;;;;;;;5074649;28;20446;-67
2021/09/02 07:17:56;;;;;;;18.57;11.53;;;;;;;;;;5075361;28;20497;-66
2021/09/02 07:20:24;;;;;;;17.60;10.80;;;;;;;;;;5075309;28;20494;-67
2021/09/02 07:22:51;;;;;;;19.63;11.40;;;;;;;;;;5079586;28;20439;-67
2021/09/02 07:25:18;;;;;;;19.30;10.93;;;;;;;;;;5085530;28;20989;-67
2021/09/02 07:27:46;;;;;;;16.00;9.90;;;;;;;;;;5087304;28;20471;-66
2021/09/02 07:30:13;;;;;;;15.87;9.50;;;;;;;;;;5082125;28;20471;-67
2021/09/02 07:32:40;;;;;;;15.50;10.27;;;;;;;;;;5075198;28;20443;-65
2021/09/02 07:35:10;;;;;;;13.40;8.30;;;;;;;;;;5074194;28;20481;-65
2021/09/02 07:37:37;;;;;;;16.30;8.60;;;;;;;;;;5073507;28;20436;-67
2021/09/02 07:40:05;;;;;;;16.40;8.10;;;;;;;;;;5087997;22;21058;-56
2021/09/02 07:42:32;;;;;;;16.10;7.60;;;;;;;;;;5033169;28;20511;-57
2021/09/02 07:45:00;;;;;;;13.60;6.73;;;;;;;;;;5033069;28;20948;-58
2021/09/02 07:47:28;;;;;;;11.60;8.50;;;;;;;;;;5033227;28;20555;-58
2021/09/02 07:49:55;;;;;;;12.27;7.40;;;;;;;;;;5033256;28;20480;-58
2021/09/02 07:52:24;;;;;;;13.50;6.87;;;;;;;;;;5033241;28;20441;-58
2021/09/02 07:54:51;;;;;;;10.00;7.00;;;;;;;;;;5033379;28;20445;-58
2021/09/02 07:57:18;;;;;;;9.03;7.33;;;;;;;;;;5033043;28;20510;-58
2021/09/02 07:59:45;;;;;;;9.70;6.83;;;;;;;;;;5032901;28;20505;-59
2021/09/02 08:02:12;;;;;;;11.93;7.40;;;;;;;;;;5033059;28;20499;-58
2021/09/02 08:04:40;;;;;;;10.80;6.27;;;;;;;;;;5033193;28;20449;-58
2021/09/02 08:07:07;;;;;;;11.53;7.47;;;;;;;;;;5033108;28;20498;-58
2021/09/02 08:09:35;;;;;;;12.03;6.83;;;;;;;;;;5032690;28;20485;-59
2021/09/02 08:12:03;;;;;;;14.70;6.80;;;;;;;;;;5033365;28;20560;-58
2021/09/02 08:14:30;;;;;;;12.03;7.27;;;;;;;;;;5033063;28;20441;-58
2021/09/02 08:16:57;;;;;;;15.70;7.67;;;;;;;;;;5033009;28;20503;-58
2021/09/02 08:19:25;;;;;;;15.23;7.53;;;;;;;;;;5033405;28;20445;-58
2021/09/02 08:21:52;;;;;;;10.57;6.70;;;;;;;;;;5032980;28;20468;-58
2021/09/02 08:24:19;;;;;;;9.50;5.97;;;;;;;;;;5032608;28;20933;-59
2021/09/02 08:26:49;;;;;;;11.47;7.47;;;;;;;;;;5032985;28;20510;-59
2021/09/02 08:29:16;;;;;;;11.43;7.40;;;;;;;;;;5033856;28;20562;-58
2021/09/02 08:31:43;;;;;;;15.40;8.00;;;;;;;;;;5032907;28;20480;-57
2021/09/02 08:34:10;;;;;;;10.93;7.17;;;;;;;;;;5032990;28;20452;-58
2021/09/02 08:36:38;;;;;;;13.50;7.00;;;;;;;;;;5033460;28;20444;-58
2021/09/02 08:39:05;;;;;;;9.33;6.33;;;;;;;;;;5033578;28;20608;-59
2021/09/02 08:41:34;;;;;;;14.30;7.20;;;;;;;;;;5032523;28;20531;-58
2021/09/02 08:44:03;;;;;;;11.20;7.00;;;;;;;;;;5032754;28;20453;-59
2021/09/02 08:46:31;;;;;;;14.40;6.90;;;;;;;;;;5033420;28;20511;-59
2021/09/02 08:49:01;;;;;;;9.70;7.00;;;;;;;;;;5032839;28;21004;-58
2021/09/02 08:51:28;;;;;;;11.73;8.60;;;;;;;;;;5032684;28;20465;-58
2021/09/02 08:53:55;;;;;;;13.20;8.13;;;;;;;;;;5034964;28;20519;-58
2021/09/02 08:56:23;;;;;;;13.33;8.30;;;;;;;;;;5036809;28;20495;-57
2021/09/02 08:58:50;;;;;;;11.77;8.20;;;;;;;;;;5036129;28;20433;-58
2021/09/02 09:01:18;;;;;;;14.20;9.60;;;;;;;;;;5036555;28;20944;-58
2021/09/02 09:03:49;;;;;;;14.20;9.60;;;;;;;;;;5036279;28;20457;-58
2021/09/02 09:06:23;;;;;;;14.90;9.80;;;;;;;;;;5035810;28;20894;-59
2021/09/02 09:08:50;;;;;;;15.77;12.63;;;;;;;;;;5036525;28;20463;-58
2021/09/02 09:11:18;;;;;;;16.70;13.23;;;;;;;;;;5035855;28;21043;-59
2021/09/02 09:13:46;;;;;;;15.70;11.87;;;;;;;;;;5036305;28;20442;-58
2021/09/02 09:16:14;;;;;;;17.40;13.10;;;;;;;;;;5036234;28;20887;-58
2021/09/02 09:18:43;;;;;;;12.87;10.33;;;;;;;;;;5035998;28;20437;-58
2021/09/02 09:21:12;;;;;;;16.80;12.57;;;;;;;;;;5035857;28;20516;-58
2021/09/02 09:23:53;;;;;;;12.20;11.00;;;;;;;;;;5035666;28;20449;-59
2021/09/02 09:26:20;;;;;;;15.67;11.37;;;;;;;;;;5035418;28;20439;-58
2021/09/02 09:28:47;;;;;;;16.57;11.63;;;;;;;;;;5035397;28;20477;-57
2021/09/02 09:31:28;;;;;;;13.57;12.07;;;;;;;;;;5035854;28;20465;-58
2021/09/02 09:33:57;;;;;;;15.87;12.97;;;;;;;;;;5035613;28;20472;-58
2021/09/02 09:36:25;;;;;;;18.90;13.80;;;;;;;;;;5035275;28;20454;-58
2021/09/02 09:38:59;;;;;;;13.77;11.50;;;;;;;;;;5035171;28;20499;-58
2021/09/02 09:41:36;;;;;;;14.03;12.63;;;;;;;;;;5035747;28;20485;-58
2021/09/02 09:44:16;;;;;;;13.90;12.50;;;;;;;;;;5035340;28;20449;-58
2021/09/02 09:46:44;;;;;;;16.00;12.23;;;;;;;;;;5035613;28;20503;-58
2021/09/02 09:49:12;;;;;;;15.03;13.07;;;;;;;;;;5035169;28;20547;-57
2021/09/02 09:51:43;;;;;;;17.80;13.07;;;;;;;;;;5035013;28;20536;-58
2021/09/02 09:54:10;;;;;;;14.87;12.63;;;;;;;;;;5035274;28;20868;-57
2021/09/02 09:56:37;;;;;;;15.07;12.97;;;;;;;;;;5034381;28;20505;-58
2021/09/02 09:59:05;;;;;;;15.97;12.33;;;;;;;;;;5035409;28;20463;-57
2021/09/02 10:01:33;;;;;;;16.17;13.20;;;;;;;;;;5034826;28;20482;-58
2021/09/02 10:04:01;;;;;;;12.80;11.50;;;;;;;;;;5035081;28;20450;-58
2021/09/02 10:06:30;;;;;;;15.10;11.20;;;;;;;;;;5034953;28;20502;-58
2021/09/02 10:08:57;;;;;;;12.63;10.50;;;;;;;;;;5034587;28;20537;-57
2021/09/02 10:11:24;;;;;;;12.57;11.33;;;;;;;;;;5034918;28;20467;-58
2021/09/02 10:13:52;;;;;;;15.00;10.10;;;;;;;;;;5034406;28;20443;-58
2021/09/02 10:16:21;;;;;;;15.70;10.87;;;;;;;;;;5034679;28;20451;-58
2021/09/02 10:18:48;;;;;;;12.90;10.10;;;;;;;;;;5034435;28;20994;-58
2021/09/02 10:21:16;;;;;;;14.13;10.07;;;;;;;;;;5034495;28;20518;-58
2021/09/02 10:23:45;;;;;;;12.67;10.50;;;;;;;;;;5034384;28;20448;-58
2021/09/02 10:26:32;;;;;;;12.73;9.50;;;;;;;;;;5034555;28;20449;-58
2021/09/02 10:28:59;;;;;;;13.77;9.40;;;;;;;;;;5034860;28;20569;-59
2021/09/02 10:31:26;;;;;;;11.23;9.80;;;;;;;;;;5034471;28;20561;-58
2021/09/02 10:33:54;;;;;;;13.33;9.40;;;;;;;;;;5034229;28;20554;-58
2021/09/02 10:36:43;;;;;;;16.73;10.13;;;;;;;;;;5034322;28;20452;-59
2021/09/02 10:39:12;;;;;;;12.53;8.77;;;;;;;;;;5034556;28;20460;-57
2021/09/02 10:41:50;;;;;;;9.83;8.13;;;;;;;;;;5033690;28;20590;-57
2021/09/02 10:44:19;;;;;;;10.73;8.20;;;;;;;;;;5034102;28;20905;-58
2021/09/02 10:46:46;;;;;;;9.77;8.03;;;;;;;;;;5034274;28;20453;-58
2021/09/02 10:49:14;;;;;;;10.90;7.87;;;;;;;;;;5033775;28;20490;-57
2021/09/02 10:51:42;;;;;;;10.53;8.03;;;;;;;;;;5033668;28;20546;-56
2021/09/02 10:54:10;;;;;;;17.80;9.27;;;;;;;;;;5033999;28;20503;-56
2021/09/02 10:59:40;;;;;;;10.70;7.60;;;;;;;;;;5091271;28;20579;-57
2021/09/02 11:02:09;;;;;;;10.33;7.80;;;;;;;;;;5070353;28;20901;-57
2021/09/02 11:04:36;;;;;;;9.87;7.60;;;;;;;;;;5069869;28;20476;-57
2021/09/02 11:07:04;;;;;;;12.07;8.50;;;;;;;;;;5070426;28;20456;-57
2021/09/02 11:09:32;;;;;;;12.33;8.27;;;;;;;;;;5069691;28;20895;-57
2021/09/02 11:11:59;;;;;;;10.90;7.20;;;;;;;;;;5070725;28;20457;-57
2021/09/02 11:14:27;;;;;;;9.10;8.00;;;;;;;;;;5069895;28;20824;-57
2021/09/02 11:16:56;;;;;;;10.60;7.00;;;;;;;;;;5069959;28;20454;-57
2021/09/02 11:19:33;;;;;;;13.07;7.23;;;;;;;;;;5070055;28;20516;-57
2021/09/02 11:22:10;;;;;;;9.53;6.23;;;;;;;;;;5070265;28;20506;-57
2021/09/02 11:24:39;;;;;;;7.90;6.90;;;;;;;;;;5069464;28;20428;-58
2021/09/02 11:27:06;;;;;;;10.23;7.40;;;;;;;;;;5069835;28;20855;-57
2021/09/02 11:29:33;;;;;;;10.67;7.67;;;;;;;;;;5069912;28;20442;-58
2021/09/02 11:32:03;;;;;;;9.03;7.30;;;;;;;;;;5069338;28;20863;-57
2021/09/02 11:34:30;;;;;;;8.13;6.53;;;;;;;;;;5069641;28;20451;-58
2021/09/02 11:36:58;;;;;;;9.63;6.30;;;;;;;;;;5069403;28;20444;-57
2021/09/02 11:39:27;;;;;;;12.27;7.30;;;;;;;;;;5069531;28;20481;-57
2021/09/02 11:41:59;;;;;;;10.83;7.50;;;;;;;;;;5068997;28;20868;-57
2021/09/02 11:44:27;;;;;;;9.70;8.00;;;;;;;;;;5069333;28;20533;-58
2021/09/02 11:46:55;;;;;;;10.77;7.50;;;;;;;;;;5069051;28;20449;-57
2021/09/02 11:49:23;;;;;;;10.17;7.07;;;;;;;;;;5069082;28;20858;-57
2021/09/02 11:51:54;;;;;;;13.30;8.00;;;;;;;;;;5068973;28;20831;-57
2021/09/02 11:54:22;;;;;;;10.10;7.10;;;;;;;;;;5069133;28;20460;-57
2021/09/02 11:56:49;;;;;;;9.70;7.80;;;;;;;;;;5069433;28;20461;-58
2021/09/02 11:59:16;;;;;;;9.47;8.30;;;;;;;;;;5068784;28;20479;-57
2021/09/02 12:01:44;;;;;;;14.83;8.03;;;;;;;;;;5068952;28;20472;-56
2021/09/02 12:04:16;;;;;;;11.77;8.77;;;;;;;;;;5068686;28;20939;-57
2021/09/02 12:06:45;;;;;;;10.87;7.57;;;;;;;;;;5069095;28;20427;-57
2021/09/02 12:09:13;;;;;;;13.60;7.70;;;;;;;;;;5065221;28;20505;-57
2021/09/02 12:11:40;;;;;;;11.10;8.20;;;;;;;;;;5055932;28;20527;-57
2021/09/02 12:14:19;;;;;;;11.57;6.80;;;;;;;;;;5055809;28;20863;-57
2021/09/02 12:16:47;;;;;;;11.23;6.90;;;;;;;;;;5055756;28;20479;-56
2021/09/02 12:19:14;;;;;;;12.90;6.80;;;;;;;;;;5055996;28;20913;-57
2021/09/02 12:21:41;;;;;;;10.03;5.97;;;;;;;;;;5055452;28;20835;-56
2021/09/02 12:24:11;;;;;;;9.30;7.80;;;;;;;;;;5055467;28;20858;-58
2021/09/02 12:26:48;;;;;;;9.33;6.93;;;;;;;;;;5055514;28;20452;-58
2021/09/02 12:29:16;;;;;;;10.90;6.47;;;;;;;;;;5055236;28;20455;-58
2021/09/02 12:31:43;;;;;;;9.37;6.40;;;;;;;;;;5055177;28;20478;-56
2021/09/02 12:34:13;;;;;;;10.90;6.93;;;;;;;;;;5055025;28;20936;-56
2021/09/02 12:36:41;;;;;;;10.70;7.83;;;;;;;;;;5055174;28;20455;-57
2021/09/02 12:39:23;;;;;;;9.60;6.87;;;;;;;;;;5054820;28;20526;-57
2021/09/02 12:41:52;;;;;;;9.50;8.10;;;;;;;;;;5054750;28;20879;-57
2021/09/02 12:44:23;;;;;;;9.30;7.17;;;;;;;;;;5054907;28;20449;-57
2021/09/02 12:46:52;;;;;;;10.27;7.70;;;;;;;;;;5055141;28;20448;-57
2021/09/02 12:49:20;;;;;;;9.70;8.10;;;;;;;;;;5055060;28;20480;-57
2021/09/02 12:52:14;;;;;;;10.50;8.70;;;;;;;;;;5054384;28;20466;-57
2021/09/02 12:55:06;;;;;;;13.70;8.90;;;;;;;;;;5054224;28;20974;-58
2021/09/02 12:57:34;;;;;;;12.40;9.33;;;;;;;;;;5054664;28;20529;-57
2021/09/02 13:00:01;;;;;;;11.30;8.27;;;;;;;;;;5054419;28;20839;-58
2021/09/02 13:02:29;;;;;;;11.03;8.13;;;;;;;;;;5054678;28;20993;-58
2021/09/02 13:04:56;;;;;;;14.63;8.87;;;;;;;;;;5054478;28;20501;-58
2021/09/02 13:07:23;;;;;;;11.90;8.50;;;;;;;;;;5054460;28;20450;-57
2021/09/02 13:09:50;;;;;;;11.13;8.77;;;;;;;;;;5054404;28;20452;-58
2021/09/02 13:12:19;;;;;;;11.23;8.47;;;;;;;;;;5054366;28;21001;-57
2021/09/02 13:14:46;;;;;;;12.63;8.47;;;;;;;;;;5054088;28;20865;-58
2021/09/02 13:17:13;;;;;;;13.07;8.73;;;;;;;;;;5054646;28;20448;-58
2021/09/02 13:19:41;;;;;;;12.67;7.33;;;;;;;;;;5054194;28;20574;-57
2021/09/02 13:22:08;;;;;;;12.03;8.10;;;;;;;;;;5053437;28;20506;-59
2021/09/02 13:24:35;;;;;;;9.30;7.67;;;;;;;;;;5054334;28;20888;-58
2021/09/02 13:27:03;;;;;;;9.57;7.30;;;;;;;;;;5053913;28;20546;-58
2021/09/02 13:29:31;;;;;;;11.00;8.30;;;;;;;;;;5053867;28;20486;-58
2021/09/02 13:31:59;;;;;;;9.50;6.93;;;;;;;;;;5053569;28;20528;-59
2021/09/02 13:34:26;;;;;;;11.50;6.63;;;;;;;;;;5053611;28;20455;-59
2021/09/02 13:36:53;;;;;;;8.70;7.03;;;;;;;;;;5054117;28;20589;-57
2021/09/02 13:39:21;;;;;;;9.53;7.43;;;;;;;;;;5053562;28;20896;-58
2021/09/02 13:41:49;;;;;;;9.70;7.93;;;;;;;;;;5057071;22;20500;-66
2021/09/02 13:44:16;;;;;;;7.70;6.50;;;;;;;;;;5033505;28;20518;-66
2021/09/02 13:46:45;;;;;;;7.90;6.30;;;;;;;;;;5033622;28;21002;-65
2021/09/02 13:49:12;;;;;;;9.60;6.80;;;;;;;;;;5033683;28;20502;-66
2021/09/02 13:51:39;;;;;;;13.03;6.77;;;;;;;;;;5033485;28;21015;-66
2021/09/02 13:54:07;;;;;;;8.80;7.27;;;;;;;;;;5033648;28;20451;-66
2021/09/02 13:56:34;;;;;;;10.17;6.90;;;;;;;;;;5033644;28;20449;-67
2021/09/02 13:59:01;;;;;;;8.17;6.90;;;;;;;;;;5033763;28;20484;-65
2021/09/02 14:01:29;;;;;;;8.80;6.30;;;;;;;;;;5033706;28;20609;-65
2021/09/02 14:03:58;;;;;;;7.40;5.80;;;;;;;;;;5033218;28;20546;-66
2021/09/02 14:06:25;;;;;;;6.83;5.63;;;;;;;;;;5033784;28;20445;-66
2021/09/02 14:08:52;;;;;;;8.93;6.00;;;;;;;;;;5033746;28;20446;-66
2021/09/02 14:11:20;;;;;;;7.50;6.70;;;;;;;;;;5033112;28;21058;-66
2021/09/02 14:13:47;;;;;;;10.70;5.97;;;;;;;;;;5033232;28;20522;-66
2021/09/02 14:16:14;;;;;;;9.03;7.20;;;;;;;;;;5033710;28;20955;-66
2021/09/02 14:18:42;;;;;;;8.77;6.00;;;;;;;;;;5033012;28;20480;-65
2021/09/02 14:21:11;;;;;;;8.50;5.70;;;;;;;;;;5032315;28;20464;-65
2021/09/02 14:23:39;;;;;;;9.87;7.13;;;;;;;;;;5033457;28;20448;-65
2021/09/02 14:26:06;;;;;;;8.30;6.90;;;;;;;;;;5033282;28;20499;-65
2021/09/02 14:28:33;;;;;;;11.70;7.40;;;;;;;;;;5033096;28;20863;-65
2021/09/02 14:31:01;;;;;;;12.07;6.50;;;;;;;;;;5033256;28;20511;-65
2021/09/02 14:33:28;;;;;;;8.00;6.10;;;;;;;;;;5032854;28;20448;-66
2021/09/02 14:35:57;;;;;;;10.83;6.77;;;;;;;;;;5033302;28;20459;-66